sensor_id;sensor_type;location;lat;lon;timestamp;temperature;humidity
10123;DHT22;5101;49.038;8.710;2022-11-18T00:00:54;10.10;99.90
10123;DHT22;5101;49.038;8.710;2022-11-18T00:03:19;10.10;99.90
10123;DHT22;5101;49.038;8.710;2022-11-18T00:05:52;10.10;99.90
10123;DHT22;5101;49.038;8.710;2022-11-18T00:08:17;10.00;99.90
10123;DHT22;5101;49.038;8.710;2022-11-18T00:10:43;10.00;99.90
10123;DHT22;5101;49.038;8.710;2022-11-18T00:13:11;10.10;99.90
10123;DHT22;5101;49.038;8.710;2022-11-18T00:16:08;10.00;99.90
10123;DHT22;5101;49.038;8.710;2022-11-18T00:18:35;10.00;99.90
10123;DHT22;5101;49.038;8.710;2022-11-18T00:21:02;10.00;99.90
10123;DHT22;5101;49.038;8.710;2022-11-18T00:23:28;10.00;99.90
10123;DHT22;5101;49.038;8.710;2022-11-18T00:25:54;10.00;99.90
10123;DHT22;5101;49.038;8.710;2022-11-18T00:28:19;10.00;99.90
10123;DHT22;5101;49.038;8.710;2022-11-18T00:30:45;10.00;99.90
10123;DHT22;5101;49.038;8.710;2022-11-18T00:33:10;10.10;99.90
10123;DHT22;5101;49.038;8.710;2022-11-18T00:35:36;10.10;99.90
10123;DHT22;5101;49.038;8.710;2022-11-18T00:38:02;10.10;99.90
10123;DHT22;5101;49.038;8.710;2022-11-18T00:40:27;10.10;99.90
10123;DHT22;5101;49.038;8.710;2022-11-18T00:42:53;10.10;99.90
10123;DHT22;5101;49.038;8.710;2022-11-18T00:45:19;10.10;99.90
10123;DHT22;5101;49.038;8.710;2022-11-18T00:47:45;10.10;99.90
10123;DHT22;5101;49.038;8.710;2022-11-18T00:50:11;10.20;99.90
10123;DHT22;5101;49.038;8.710;2022-11-18T00:52:36;10.10;99.90
10123;DHT22;5101;49.038;8.710;2022-11-18T00:55:02;10.10;99.90
10123;DHT22;5101;49.038;8.710;2022-11-18T00:57:28;10.10;99.90
10123;DHT22;5101;49.038;8.710;2022-11-18T00:59:54;10.10;99.90
10123;DHT22;5101;49.038;8.710;2022-11-18T01:02:19;10.10;99.90
10123;DHT22;5101;49.038;8.710;2022-11-18T01:04:45;10.20;99.90
10123;DHT22;5101;49.038;8.710;2022-11-18T01:07:10;10.10;99.90
10123;DHT22;5101;49.038;8.710;2022-11-18T01:09:36;10.10;99.90
10123;DHT22;5101;49.038;8.710;2022-11-18T01:12:01;10.10;99.90
10123;DHT22;5101;49.038;8.710;2022-11-18T01:14:45;10.10;99.90
10123;DHT22;5101;49.038;8.710;2022-11-18T01:17:11;10.10;99.90
10123;DHT22;5101;49.038;8.710;2022-11-18T01:19:36;10.10;99.90
10123;DHT22;5101;49.038;8.710;2022-11-18T01:22:02;10.20;99.90
10123;DHT22;5101;49.038;8.710;2022-11-18T01:24:29;10.20;99.90
10123;DHT22;5101;49.038;8.710;2022-11-18T01:26:55;10.20;99.90
10123;DHT22;5101;49.038;8.710;2022-11-18T01:29:20;10.20;99.90
10123;DHT22;5101;49.038;8.710;2022-11-18T01:31:46;10.20;99.90
10123;DHT22;5101;49.038;8.710;2022-11-18T01:34:11;10.20;99.90
10123;DHT22;5101;49.038;8.710;2022-11-18T01:36:37;10.20;99.90
10123;DHT22;5101;49.038;8.710;2022-11-18T01:39:02;10.30;99.90
10123;DHT22;5101;49.038;8.710;2022-11-18T01:41:28;10.30;99.90
10123;DHT22;5101;49.038;8.710;2022-11-18T01:43:58;10.30;99.90
10123;DHT22;5101;49.038;8.710;2022-11-18T01:46:29;10.30;99.90
10123;DHT22;5101;49.038;8.710;2022-11-18T01:49:02;10.30;99.90
10123;DHT22;5101;49.038;8.710;2022-11-18T01:51:45;10.30;99.90
10123;DHT22;5101;49.038;8.710;2022-11-18T01:54:18;10.30;99.90
10123;DHT22;5101;49.038;8.710;2022-11-18T01:56:48;10.20;99.90
10123;DHT22;5101;49.038;8.710;2022-11-18T01:59:22;10.20;99.90
10123;DHT22;5101;49.038;8.710;2022-11-18T02:01:48;10.20;99.90
10123;DHT22;5101;49.038;8.710;2022-11-18T02:04:14;10.20;99.90
10123;DHT22;5101;49.038;8.710;2022-11-18T02:06:42;10.20;99.90
10123;DHT22;5101;49.038;8.710;2022-11-18T02:09:10;10.30;99.90
10123;DHT22;5101;49.038;8.710;2022-11-18T02:11:36;10.30;99.90
10123;DHT22;5101;49.038;8.710;2022-11-18T02:14:28;10.20;99.90
10123;DHT22;5101;49.038;8.710;2022-11-18T02:17:16;10.30;99.90
10123;DHT22;5101;49.038;8.710;2022-11-18T02:20:02;10.30;99.90
10123;DHT22;5101;49.038;8.710;2022-11-18T02:22:45;10.30;99.90
10123;DHT22;5101;49.038;8.710;2022-11-18T02:28:20;10.30;99.90
10123;DHT22;5101;49.038;8.710;2022-11-18T02:34:15;10.30;99.90
10123;DHT22;5101;49.038;8.710;2022-11-18T02:36:54;10.40;99.90
10123;DHT22;5101;49.038;8.710;2022-11-18T02:39:28;10.40;99.90
10123;DHT22;5101;49.038;8.710;2022-11-18T02:41:55;10.40;99.90
10123;DHT22;5101;49.038;8.710;2022-11-18T02:44:25;10.40;99.90
10123;DHT22;5101;49.038;8.710;2022-11-18T02:46:55;10.40;99.90
10123;DHT22;5101;49.038;8.710;2022-11-18T02:49:26;10.40;99.90
10123;DHT22;5101;49.038;8.710;2022-11-18T02:51:54;10.30;99.90
10123;DHT22;5101;49.038;8.710;2022-11-18T02:54:22;10.30;99.90
10123;DHT22;5101;49.038;8.710;2022-11-18T02:56:50;10.20;99.90
10123;DHT22;5101;49.038;8.710;2022-11-18T02:59:17;10.20;99.90
10123;DHT22;5101;49.038;8.710;2022-11-18T03:01:43;10.20;99.90
10123;DHT22;5101;49.038;8.710;2022-11-18T03:04:09;10.20;99.90
10123;DHT22;5101;49.038;8.710;2022-11-18T03:06:40;10.20;99.90
10123;DHT22;5101;49.038;8.710;2022-11-18T03:09:25;10.20;99.90
10123;DHT22;5101;49.038;8.710;2022-11-18T03:12:00;10.30;99.90
10123;DHT22;5101;49.038;8.710;2022-11-18T03:17:30;10.20;99.90
10123;DHT22;5101;49.038;8.710;2022-11-18T03:20:09;10.20;99.90
10123;DHT22;5101;49.038;8.710;2022-11-18T03:22:43;10.20;99.90
10123;DHT22;5101;49.038;8.710;2022-11-18T03:25:22;10.20;99.90
10123;DHT22;5101;49.038;8.710;2022-11-18T03:27:56;10.10;99.90
10123;DHT22;5101;49.038;8.710;2022-11-18T03:30:25;10.10;99.90
10123;DHT22;5101;49.038;8.710;2022-11-18T03:32:57;10.10;99.90
10123;DHT22;5101;49.038;8.710;2022-11-18T03:35:25;10.00;99.90
10123;DHT22;5101;49.038;8.710;2022-11-18T03:38:00;10.10;99.90
10123;DHT22;5101;49.038;8.710;2022-11-18T03:40:29;10.10;99.90
10123;DHT22;5101;49.038;8.710;2022-11-18T03:43:03;10.10;99.90
10123;DHT22;5101;49.038;8.710;2022-11-18T03:45:35;10.10;99.90
10123;DHT22;5101;49.038;8.710;2022-11-18T03:48:16;10.10;99.90
10123;DHT22;5101;49.038;8.710;2022-11-18T03:50:47;10.20;99.90
10123;DHT22;5101;49.038;8.710;2022-11-18T03:53:15;10.10;99.90
10123;DHT22;5101;49.038;8.710;2022-11-18T03:55:47;10.10;99.90
10123;DHT22;5101;49.038;8.710;2022-11-18T03:58:22;10.10;99.90
10123;DHT22;5101;49.038;8.710;2022-11-18T04:00:53;10.00;99.90
10123;DHT22;5101;49.038;8.710;2022-11-18T04:03:21;10.00;99.90
10123;DHT22;5101;49.038;8.710;2022-11-18T04:05:50;10.00;99.90
10123;DHT22;5101;49.038;8.710;2022-11-18T04:08:23;10.00;99.90
10123;DHT22;5101;49.038;8.710;2022-11-18T04:11:10;10.00;99.90
10123;DHT22;5101;49.038;8.710;2022-11-18T04:13:58;10.00;99.90
10123;DHT22;5101;49.038;8.710;2022-11-18T04:16:24;10.00;99.90
10123;DHT22;5101;49.038;8.710;2022-11-18T04:18:49;10.00;99.90
10123;DHT22;5101;49.038;8.710;2022-11-18T04:21:15;10.00;99.90
10123;DHT22;5101;49.038;8.710;2022-11-18T04:23:40;10.00;99.90
10123;DHT22;5101;49.038;8.710;2022-11-18T04:26:06;9.90;99.90
10123;DHT22;5101;49.038;8.710;2022-11-18T04:28:31;9.90;99.90
10123;DHT22;5101;49.038;8.710;2022-11-18T04:30:57;9.90;99.90
10123;DHT22;5101;49.038;8.710;2022-11-18T04:33:22;9.90;99.90
10123;DHT22;5101;49.038;8.710;2022-11-18T04:35:47;10.00;99.90
10123;DHT22;5101;49.038;8.710;2022-11-18T04:38:13;10.00;99.90
10123;DHT22;5101;49.038;8.710;2022-11-18T04:40:38;9.90;99.90
10123;DHT22;5101;49.038;8.710;2022-11-18T04:43:04;9.90;99.90
10123;DHT22;5101;49.038;8.710;2022-11-18T04:45:29;9.90;99.90
10123;DHT22;5101;49.038;8.710;2022-11-18T04:47:55;9.90;99.90
10123;DHT22;5101;49.038;8.710;2022-11-18T04:50:20;9.80;99.90
10123;DHT22;5101;49.038;8.710;2022-11-18T04:52:46;9.80;99.90
10123;DHT22;5101;49.038;8.710;2022-11-18T04:55:11;9.80;99.90
10123;DHT22;5101;49.038;8.710;2022-11-18T04:57:37;9.80;99.90
10123;DHT22;5101;49.038;8.710;2022-11-18T05:00:03;9.70;99.90
10123;DHT22;5101;49.038;8.710;2022-11-18T05:02:29;9.70;99.90
10123;DHT22;5101;49.038;8.710;2022-11-18T05:04:54;9.70;99.90
10123;DHT22;5101;49.038;8.710;2022-11-18T05:07:20;9.70;99.90
10123;DHT22;5101;49.038;8.710;2022-11-18T05:09:45;9.70;99.90
10123;DHT22;5101;49.038;8.710;2022-11-18T05:12:12;9.70;99.90
10123;DHT22;5101;49.038;8.710;2022-11-18T05:14:56;9.60;99.90
10123;DHT22;5101;49.038;8.710;2022-11-18T05:17:22;9.60;99.90
10123;DHT22;5101;49.038;8.710;2022-11-18T05:19:47;9.70;99.90
10123;DHT22;5101;49.038;8.710;2022-11-18T05:22:14;9.70;99.90
10123;DHT22;5101;49.038;8.710;2022-11-18T05:24:39;9.60;99.90
10123;DHT22;5101;49.038;8.710;2022-11-18T05:27:05;9.70;99.90
10123;DHT22;5101;49.038;8.710;2022-11-18T05:29:30;9.60;99.90
10123;DHT22;5101;49.038;8.710;2022-11-18T05:31:57;9.70;99.90
10123;DHT22;5101;49.038;8.710;2022-11-18T05:34:23;9.70;99.90
10123;DHT22;5101;49.038;8.710;2022-11-18T05:36:49;9.60;99.90
10123;DHT22;5101;49.038;8.710;2022-11-18T05:39:14;9.60;99.90
10123;DHT22;5101;49.038;8.710;2022-11-18T05:41:40;9.60;99.90
10123;DHT22;5101;49.038;8.710;2022-11-18T05:44:24;9.60;99.90
10123;DHT22;5101;49.038;8.710;2022-11-18T05:46:49;9.50;99.90
10123;DHT22;5101;49.038;8.710;2022-11-18T05:49:15;9.50;99.90
10123;DHT22;5101;49.038;8.710;2022-11-18T05:51:40;9.50;99.90
10123;DHT22;5101;49.038;8.710;2022-11-18T05:54:07;9.40;99.90
10123;DHT22;5101;49.038;8.710;2022-11-18T05:56:41;9.40;99.90
10123;DHT22;5101;49.038;8.710;2022-11-18T05:59:09;9.40;99.90
10123;DHT22;5101;49.038;8.710;2022-11-18T06:01:42;9.40;99.90
10123;DHT22;5101;49.038;8.710;2022-11-18T06:06:37;9.40;99.90
10123;DHT22;5101;49.038;8.710;2022-11-18T06:09:05;9.40;99.90
10123;DHT22;5101;49.038;8.710;2022-11-18T06:11:37;9.30;99.90
10123;DHT22;5101;49.038;8.710;2022-11-18T06:16:36;9.30;99.90
10123;DHT22;5101;49.038;8.710;2022-11-18T06:19:04;9.20;99.90
10123;DHT22;5101;49.038;8.710;2022-11-18T06:21:30;9.30;99.90
10123;DHT22;5101;49.038;8.710;2022-11-18T06:23:55;9.30;99.90
10123;DHT22;5101;49.038;8.710;2022-11-18T06:26:21;9.30;99.90
10123;DHT22;5101;49.038;8.710;2022-11-18T06:28:47;9.30;99.90
10123;DHT22;5101;49.038;8.710;2022-11-18T06:31:13;9.20;99.90
10123;DHT22;5101;49.038;8.710;2022-11-18T06:33:41;9.20;99.90
10123;DHT22;5101;49.038;8.710;2022-11-18T06:36:07;9.20;99.90
10123;DHT22;5101;49.038;8.710;2022-11-18T06:38:32;9.20;99.90
10123;DHT22;5101;49.038;8.710;2022-11-18T06:40:59;9.20;99.90
10123;DHT22;5101;49.038;8.710;2022-11-18T06:43:25;9.30;99.90
10123;DHT22;5101;49.038;8.710;2022-11-18T06:46:04;9.20;99.90
10123;DHT22;5101;49.038;8.710;2022-11-18T06:48:49;9.30;99.90
10123;DHT22;5101;49.038;8.710;2022-11-18T06:51:14;9.20;99.90
10123;DHT22;5101;49.038;8.710;2022-11-18T06:53:40;9.20;99.90
10123;DHT22;5101;49.038;8.710;2022-11-18T06:56:08;9.20;99.90
10123;DHT22;5101;49.038;8.710;2022-11-18T06:58:34;9.20;99.90
10123;DHT22;5101;49.038;8.710;2022-11-18T07:01:17;9.20;99.90
10123;DHT22;5101;49.038;8.710;2022-11-18T07:03:44;9.20;99.90
10123;DHT22;5101;49.038;8.710;2022-11-18T07:06:11;9.20;99.90
10123;DHT22;5101;49.038;8.710;2022-11-18T07:08:38;9.10;99.90
10123;DHT22;5101;49.038;8.710;2022-11-18T07:11:05;9.10;99.90
10123;DHT22;5101;49.038;8.710;2022-11-18T07:13:34;9.20;99.90
10123;DHT22;5101;49.038;8.710;2022-11-18T07:16:11;9.10;99.90
10123;DHT22;5101;49.038;8.710;2022-11-18T07:18:38;9.20;99.90
10123;DHT22;5101;49.038;8.710;2022-11-18T07:21:06;9.20;99.90
10123;DHT22;5101;49.038;8.710;2022-11-18T07:23:33;9.20;99.90
10123;DHT22;5101;49.038;8.710;2022-11-18T07:25:58;9.20;99.90
10123;DHT22;5101;49.038;8.710;2022-11-18T07:28:25;9.20;99.90
10123;DHT22;5101;49.038;8.710;2022-11-18T07:30:50;9.10;99.90
10123;DHT22;5101;49.038;8.710;2022-11-18T07:33:16;9.10;99.90
10123;DHT22;5101;49.038;8.710;2022-11-18T07:35:42;9.20;99.90
10123;DHT22;5101;49.038;8.710;2022-11-18T07:38:08;9.20;99.90
10123;DHT22;5101;49.038;8.710;2022-11-18T07:40:33;9.10;99.90
10123;DHT22;5101;49.038;8.710;2022-11-18T07:42:59;9.20;99.90
10123;DHT22;5101;49.038;8.710;2022-11-18T07:45:25;9.20;99.90
10123;DHT22;5101;49.038;8.710;2022-11-18T07:47:50;9.20;99.90
10123;DHT22;5101;49.038;8.710;2022-11-18T07:50:16;9.20;99.90
10123;DHT22;5101;49.038;8.710;2022-11-18T07:52:42;9.20;99.90
10123;DHT22;5101;49.038;8.710;2022-11-18T07:55:08;9.20;99.90
10123;DHT22;5101;49.038;8.710;2022-11-18T07:57:34;9.30;99.90
10123;DHT22;5101;49.038;8.710;2022-11-18T07:59:59;9.30;99.90
10123;DHT22;5101;49.038;8.710;2022-11-18T08:02:25;9.30;99.90
10123;DHT22;5101;49.038;8.710;2022-11-18T08:04:50;9.30;99.90
10123;DHT22;5101;49.038;8.710;2022-11-18T08:07:16;9.40;99.90
10123;DHT22;5101;49.038;8.710;2022-11-18T08:09:41;9.40;99.90
10123;DHT22;5101;49.038;8.710;2022-11-18T08:12:07;9.40;99.90
10123;DHT22;5101;49.038;8.710;2022-11-18T08:14:32;9.40;99.90
10123;DHT22;5101;49.038;8.710;2022-11-18T08:16:58;9.40;99.90
10123;DHT22;5101;49.038;8.710;2022-11-18T08:19:23;9.50;99.90
10123;DHT22;5101;49.038;8.710;2022-11-18T08:21:49;9.50;99.90
10123;DHT22;5101;49.038;8.710;2022-11-18T08:24:14;9.50;99.90
10123;DHT22;5101;49.038;8.710;2022-11-18T08:26:40;9.50;99.90
10123;DHT22;5101;49.038;8.710;2022-11-18T08:29:05;9.50;99.90
10123;DHT22;5101;49.038;8.710;2022-11-18T08:31:30;9.60;99.90
10123;DHT22;5101;49.038;8.710;2022-11-18T08:34:00;9.60;99.90
10123;DHT22;5101;49.038;8.710;2022-11-18T08:36:28;9.60;99.90
10123;DHT22;5101;49.038;8.710;2022-11-18T08:38:55;9.60;99.90
10123;DHT22;5101;49.038;8.710;2022-11-18T08:41:32;9.70;99.90
10123;DHT22;5101;49.038;8.710;2022-11-18T08:43:59;9.70;99.90
10123;DHT22;5101;49.038;8.710;2022-11-18T08:46:25;9.70;99.90
10123;DHT22;5101;49.038;8.710;2022-11-18T08:48:50;9.70;99.90
10123;DHT22;5101;49.038;8.710;2022-11-18T08:51:16;9.70;99.90
10123;DHT22;5101;49.038;8.710;2022-11-18T08:53:41;9.70;99.90
10123;DHT22;5101;49.038;8.710;2022-11-18T08:56:12;9.70;99.90
10123;DHT22;5101;49.038;8.710;2022-11-18T08:58:38;9.70;99.90
10123;DHT22;5101;49.038;8.710;2022-11-18T09:01:05;9.70;99.90
10123;DHT22;5101;49.038;8.710;2022-11-18T09:03:31;9.80;99.90
10123;DHT22;5101;49.038;8.710;2022-11-18T09:08:31;9.80;99.90
10123;DHT22;5101;49.038;8.710;2022-11-18T09:10:57;9.80;99.90
10123;DHT22;5101;49.038;8.710;2022-11-18T09:13:22;9.80;99.90
10123;DHT22;5101;49.038;8.710;2022-11-18T09:15:48;9.80;99.90
10123;DHT22;5101;49.038;8.710;2022-11-18T09:18:13;9.80;99.90
10123;DHT22;5101;49.038;8.710;2022-11-18T09:20:39;9.80;99.90
10123;DHT22;5101;49.038;8.710;2022-11-18T09:23:04;9.80;99.90
10123;DHT22;5101;49.038;8.710;2022-11-18T09:25:30;9.80;99.90
10123;DHT22;5101;49.038;8.710;2022-11-18T09:27:55;9.80;99.90
10123;DHT22;5101;49.038;8.710;2022-11-18T09:30:21;9.90;99.90
10123;DHT22;5101;49.038;8.710;2022-11-18T09:32:46;9.90;99.90
10123;DHT22;5101;49.038;8.710;2022-11-18T09:35:12;9.90;99.90
10123;DHT22;5101;49.038;8.710;2022-11-18T09:37:38;9.90;99.90
10123;DHT22;5101;49.038;8.710;2022-11-18T09:40:04;10.00;99.90
10123;DHT22;5101;49.038;8.710;2022-11-18T09:43:00;10.00;99.90
10123;DHT22;5101;49.038;8.710;2022-11-18T09:45:37;10.00;99.90
10123;DHT22;5101;49.038;8.710;2022-11-18T09:48:23;10.00;99.90
10123;DHT22;5101;49.038;8.710;2022-11-18T09:51:10;10.00;99.90
10123;DHT22;5101;49.038;8.710;2022-11-18T09:53:40;10.00;99.90
10123;DHT22;5101;49.038;8.710;2022-11-18T09:56:12;10.10;99.90
10123;DHT22;5101;49.038;8.710;2022-11-18T09:58:38;10.10;99.90
10123;DHT22;5101;49.038;8.710;2022-11-18T10:01:13;10.20;99.90
10123;DHT22;5101;49.038;8.710;2022-11-18T10:03:42;10.20;99.90
10123;DHT22;5101;49.038;8.710;2022-11-18T10:11:20;10.20;99.90
10123;DHT22;5101;49.038;8.710;2022-11-18T10:16:38;10.20;99.90
10123;DHT22;5101;49.038;8.710;2022-11-18T10:22:12;10.30;99.90
10123;DHT22;5101;49.038;8.710;2022-11-18T10:24:42;10.30;99.90
10123;DHT22;5101;49.038;8.710;2022-11-18T10:27:14;10.40;99.90
10123;DHT22;5101;49.038;8.710;2022-11-18T10:29:41;10.40;99.90
10123;DHT22;5101;49.038;8.710;2022-11-18T10:32:15;10.40;99.90
10123;DHT22;5101;49.038;8.710;2022-11-18T10:34:53;10.40;99.90
10123;DHT22;5101;49.038;8.710;2022-11-18T10:37:30;10.40;99.90
10123;DHT22;5101;49.038;8.710;2022-11-18T10:39:58;10.40;99.90
10123;DHT22;5101;49.038;8.710;2022-11-18T10:44:51;10.50;99.90
10123;DHT22;5101;49.038;8.710;2022-11-18T10:47:29;10.50;99.90
10123;DHT22;5101;49.038;8.710;2022-11-18T10:49:57;10.50;99.90
10123;DHT22;5101;49.038;8.710;2022-11-18T10:52:23;10.50;99.90
10123;DHT22;5101;49.038;8.710;2022-11-18T10:57:40;10.60;99.90
10123;DHT22;5101;49.038;8.710;2022-11-18T11:00:37;10.60;99.90
10123;DHT22;5101;49.038;8.710;2022-11-18T11:03:23;10.60;99.90
10123;DHT22;5101;49.038;8.710;2022-11-18T11:06:30;10.70;99.90
10123;DHT22;5101;49.038;8.710;2022-11-18T11:08:56;10.70;99.90
10123;DHT22;5101;49.038;8.710;2022-11-18T11:11:34;10.80;99.90
10123;DHT22;5101;49.038;8.710;2022-11-18T11:14:36;10.90;99.90
10123;DHT22;5101;49.038;8.710;2022-11-18T11:17:13;11.00;99.90
10123;DHT22;5101;49.038;8.710;2022-11-18T11:20:09;11.00;99.90
10123;DHT22;5101;49.038;8.710;2022-11-18T11:22:38;11.10;99.90
10123;DHT22;5101;49.038;8.710;2022-11-18T11:28:04;11.20;99.90
10123;DHT22;5101;49.038;8.710;2022-11-18T11:30:39;11.20;99.90
10123;DHT22;5101;49.038;8.710;2022-11-18T11:33:21;11.30;99.90
10123;DHT22;5101;49.038;8.710;2022-11-18T11:35:57;11.30;99.90
10123;DHT22;5101;49.038;8.710;2022-11-18T11:38:34;11.20;99.90
10123;DHT22;5101;49.038;8.710;2022-11-18T11:41:13;11.20;99.90
10123;DHT22;5101;49.038;8.710;2022-11-18T11:44:07;11.20;99.90
10123;DHT22;5101;49.038;8.710;2022-11-18T11:49:51;11.20;99.90
10123;DHT22;5101;49.038;8.710;2022-11-18T11:52:30;11.20;99.90
10123;DHT22;5101;49.038;8.710;2022-11-18T12:00:12;11.30;99.90
10123;DHT22;5101;49.038;8.710;2022-11-18T12:02:58;11.30;99.90
10123;DHT22;5101;49.038;8.710;2022-11-18T12:05:31;11.50;99.90
10123;DHT22;5101;49.038;8.710;2022-11-18T12:08:02;11.50;99.90
10123;DHT22;5101;49.038;8.710;2022-11-18T12:26:42;11.80;99.90
10123;DHT22;5101;49.038;8.710;2022-11-18T12:31:43;11.80;99.90
10123;DHT22;5101;49.038;8.710;2022-11-18T12:36:44;11.90;99.90
10123;DHT22;5101;49.038;8.710;2022-11-18T12:42:03;11.90;99.90
10123;DHT22;5101;49.038;8.710;2022-11-18T12:44:51;12.00;99.90
10123;DHT22;5101;49.038;8.710;2022-11-18T12:50:13;12.10;99.90
10123;DHT22;5101;49.038;8.710;2022-11-18T12:55:31;12.10;99.90
10123;DHT22;5101;49.038;8.710;2022-11-18T12:57:57;12.00;99.90
10123;DHT22;5101;49.038;8.710;2022-11-18T13:02:52;12.10;99.90
10123;DHT22;5101;49.038;8.710;2022-11-18T13:05:37;12.10;99.90
10123;DHT22;5101;49.038;8.710;2022-11-18T13:08:10;12.10;99.90
10123;DHT22;5101;49.038;8.710;2022-11-18T13:13:30;12.30;99.90
10123;DHT22;5101;49.038;8.710;2022-11-18T13:16:03;12.30;99.90
10123;DHT22;5101;49.038;8.710;2022-11-18T13:18:50;12.30;99.90
10123;DHT22;5101;49.038;8.710;2022-11-18T13:21:27;12.30;99.90
10123;DHT22;5101;49.038;8.710;2022-11-18T13:24:13;12.30;99.90
10123;DHT22;5101;49.038;8.710;2022-11-18T13:26:41;12.30;99.90
10123;DHT22;5101;49.038;8.710;2022-11-18T13:32:22;12.30;99.90
10123;DHT22;5101;49.038;8.710;2022-11-18T13:34:49;12.40;99.90
10123;DHT22;5101;49.038;8.710;2022-11-18T13:37:26;12.40;99.90
10123;DHT22;5101;49.038;8.710;2022-11-18T13:39:53;12.40;99.90
10123;DHT22;5101;49.038;8.710;2022-11-18T13:44:55;12.40;99.90
10123;DHT22;5101;49.038;8.710;2022-11-18T13:55:15;12.30;99.90
10123;DHT22;5101;49.038;8.710;2022-11-18T13:57:46;12.30;99.90
10123;DHT22;5101;49.038;8.710;2022-11-18T14:00:24;12.30;99.90
10123;DHT22;5101;49.038;8.710;2022-11-18T14:03:04;12.20;99.90
10123;DHT22;5101;49.038;8.710;2022-11-18T14:05:30;12.30;99.90
10123;DHT22;5101;49.038;8.710;2022-11-18T14:08:01;12.30;99.90
10123;DHT22;5101;49.038;8.710;2022-11-18T14:10:53;12.20;99.90
10123;DHT22;5101;49.038;8.710;2022-11-18T14:13:22;12.30;99.90
10123;DHT22;5101;49.038;8.710;2022-11-18T14:15:48;12.30;99.90
10123;DHT22;5101;49.038;8.710;2022-11-18T14:18:18;12.20;99.90
10123;DHT22;5101;49.038;8.710;2022-11-18T14:20:53;12.20;99.90
10123;DHT22;5101;49.038;8.710;2022-11-18T14:23:25;12.20;99.90
10123;DHT22;5101;49.038;8.710;2022-11-18T14:25:51;12.10;99.90
10123;DHT22;5101;49.038;8.710;2022-11-18T14:36:39;12.00;99.90
10123;DHT22;5101;49.038;8.710;2022-11-18T14:39:22;11.90;99.90
10123;DHT22;5101;49.038;8.710;2022-11-18T14:41:49;12.00;99.90
10123;DHT22;5101;49.038;8.710;2022-11-18T14:44:16;11.90;99.90
10123;DHT22;5101;49.038;8.710;2022-11-18T14:46:46;12.00;99.90
10123;DHT22;5101;49.038;8.710;2022-11-18T14:49:17;12.00;99.90
10123;DHT22;5101;49.038;8.710;2022-11-18T14:51:43;12.00;99.90
10123;DHT22;5101;49.038;8.710;2022-11-18T14:54:13;11.90;99.90
10123;DHT22;5101;49.038;8.710;2022-11-18T14:56:39;11.80;99.90
10123;DHT22;5101;49.038;8.710;2022-11-18T14:59:05;11.90;99.90
10123;DHT22;5101;49.038;8.710;2022-11-18T15:01:30;11.80;99.90
10123;DHT22;5101;49.038;8.710;2022-11-18T15:03:56;11.80;99.90
10123;DHT22;5101;49.038;8.710;2022-11-18T15:06:22;11.90;99.90
10123;DHT22;5101;49.038;8.710;2022-11-18T15:08:50;11.90;99.90
10123;DHT22;5101;49.038;8.710;2022-11-18T15:11:16;11.80;99.90
10123;DHT22;5101;49.038;8.710;2022-11-18T15:13:44;11.80;99.90
10123;DHT22;5101;49.038;8.710;2022-11-18T15:16:33;11.80;99.90
10123;DHT22;5101;49.038;8.710;2022-11-18T15:19:00;11.70;99.90
10123;DHT22;5101;49.038;8.710;2022-11-18T15:21:26;11.70;99.90
10123;DHT22;5101;49.038;8.710;2022-11-18T15:23:52;11.70;99.90
10123;DHT22;5101;49.038;8.710;2022-11-18T15:26:23;11.60;99.90
10123;DHT22;5101;49.038;8.710;2022-11-18T15:28:51;11.60;99.90
10123;DHT22;5101;49.038;8.710;2022-11-18T15:31:17;11.60;99.90
10123;DHT22;5101;49.038;8.710;2022-11-18T15:33:43;11.50;99.90
10123;DHT22;5101;49.038;8.710;2022-11-18T15:36:11;11.50;99.90
10123;DHT22;5101;49.038;8.710;2022-11-18T15:38:38;11.30;99.90
10123;DHT22;5101;49.038;8.710;2022-11-18T15:41:04;11.20;99.90
10123;DHT22;5101;49.038;8.710;2022-11-18T15:43:30;11.20;99.90
10123;DHT22;5101;49.038;8.710;2022-11-18T15:45:56;11.20;99.90
10123;DHT22;5101;49.038;8.710;2022-11-18T15:48:22;11.30;99.90
10123;DHT22;5101;49.038;8.710;2022-11-18T15:50:48;11.20;99.90
10123;DHT22;5101;49.038;8.710;2022-11-18T15:53:13;11.10;99.90
10123;DHT22;5101;49.038;8.710;2022-11-18T15:55:39;11.10;99.90
10123;DHT22;5101;49.038;8.710;2022-11-18T15:58:05;11.10;99.90
10123;DHT22;5101;49.038;8.710;2022-11-18T16:00:30;11.10;99.90
10123;DHT22;5101;49.038;8.710;2022-11-18T16:02:55;11.00;99.90
10123;DHT22;5101;49.038;8.710;2022-11-18T16:05:21;11.10;99.90
10123;DHT22;5101;49.038;8.710;2022-11-18T16:07:46;11.00;99.90
10123;DHT22;5101;49.038;8.710;2022-11-18T16:10:12;11.00;99.90
10123;DHT22;5101;49.038;8.710;2022-11-18T16:13:13;11.00;99.90
10123;DHT22;5101;49.038;8.710;2022-11-18T16:15:38;10.90;99.90
10123;DHT22;5101;49.038;8.710;2022-11-18T16:18:13;10.90;99.90
10123;DHT22;5101;49.038;8.710;2022-11-18T16:20:39;10.90;99.90
10123;DHT22;5101;49.038;8.710;2022-11-18T16:23:04;10.90;99.90
10123;DHT22;5101;49.038;8.710;2022-11-18T16:25:29;10.90;99.90
10123;DHT22;5101;49.038;8.710;2022-11-18T16:27:55;10.90;99.90
10123;DHT22;5101;49.038;8.710;2022-11-18T16:30:21;10.90;99.90
10123;DHT22;5101;49.038;8.710;2022-11-18T16:33:05;10.90;99.90
10123;DHT22;5101;49.038;8.710;2022-11-18T16:35:31;10.90;99.90
10123;DHT22;5101;49.038;8.710;2022-11-18T16:37:56;10.90;99.90
10123;DHT22;5101;49.038;8.710;2022-11-18T16:40:22;10.90;99.90
10123;DHT22;5101;49.038;8.710;2022-11-18T16:42:49;10.80;99.90
10123;DHT22;5101;49.038;8.710;2022-11-18T16:45:14;10.90;99.90
10123;DHT22;5101;49.038;8.710;2022-11-18T16:47:40;10.80;99.90
10123;DHT22;5101;49.038;8.710;2022-11-18T16:50:06;10.80;99.90
10123;DHT22;5101;49.038;8.710;2022-11-18T16:52:31;10.80;99.90
10123;DHT22;5101;49.038;8.710;2022-11-18T16:54:57;10.80;99.90
10123;DHT22;5101;49.038;8.710;2022-11-18T16:57:22;10.80;99.90
10123;DHT22;5101;49.038;8.710;2022-11-18T16:59:49;10.70;99.90
10123;DHT22;5101;49.038;8.710;2022-11-18T17:02:15;10.70;99.90
10123;DHT22;5101;49.038;8.710;2022-11-18T17:04:41;10.70;99.90
10123;DHT22;5101;49.038;8.710;2022-11-18T17:07:06;10.70;99.90
10123;DHT22;5101;49.038;8.710;2022-11-18T17:09:32;10.70;99.90
10123;DHT22;5101;49.038;8.710;2022-11-18T17:11:57;10.70;99.90
10123;DHT22;5101;49.038;8.710;2022-11-18T17:14:24;10.60;99.90
10123;DHT22;5101;49.038;8.710;2022-11-18T17:16:50;10.70;99.90
10123;DHT22;5101;49.038;8.710;2022-11-18T17:19:18;10.70;99.90
10123;DHT22;5101;49.038;8.710;2022-11-18T17:21:45;10.70;99.90
10123;DHT22;5101;49.038;8.710;2022-11-18T17:24:17;10.70;99.90
10123;DHT22;5101;49.038;8.710;2022-11-18T17:26:43;10.70;99.90
10123;DHT22;5101;49.038;8.710;2022-11-18T17:29:09;10.70;99.90
10123;DHT22;5101;49.038;8.710;2022-11-18T17:31:36;10.60;99.90
10123;DHT22;5101;49.038;8.710;2022-11-18T17:34:01;10.60;99.90
10123;DHT22;5101;49.038;8.710;2022-11-18T17:36:27;10.60;99.90
10123;DHT22;5101;49.038;8.710;2022-11-18T17:38:54;10.60;99.90
10123;DHT22;5101;49.038;8.710;2022-11-18T17:41:23;10.60;99.90
10123;DHT22;5101;49.038;8.710;2022-11-18T17:44:09;10.50;99.90
10123;DHT22;5101;49.038;8.710;2022-11-18T17:46:35;10.50;99.90